createdAt,value
2019-05-12T00:03:37.811Z,9.53
2019-05-12T00:08:42.947Z,9.52
2019-05-12T00:13:48.009Z,9.57
2019-05-12T00:18:53.393Z,9.60
2019-05-12T00:24:13.437Z,9.67
2019-05-12T00:29:18.682Z,9.73
2019-05-12T00:34:24.000Z,9.66
2019-05-12T00:39:29.099Z,9.67
2019-05-12T00:44:34.097Z,9.58
2019-05-12T00:49:39.103Z,9.57
2019-05-12T00:54:45.107Z,9.52
2019-05-12T00:59:50.103Z,9.44
2019-05-12T01:04:58.036Z,9.54
2019-05-12T01:10:04.749Z,9.54
2019-05-12T01:15:09.384Z,9.48
2019-05-12T01:20:14.489Z,9.52
2019-05-12T01:25:19.547Z,9.53
2019-05-12T01:30:24.589Z,9.57
2019-05-12T01:35:29.655Z,9.62
2019-05-12T01:40:34.687Z,9.59
2019-05-12T01:45:39.711Z,9.58
2019-05-12T01:50:44.716Z,9.55
2019-05-12T01:55:49.807Z,9.54
2019-05-12T02:00:54.863Z,9.48
2019-05-12T02:06:01.519Z,9.49
2019-05-12T02:11:24.383Z,9.54
2019-05-12T02:16:29.487Z,9.51
2019-05-12T02:21:34.537Z,9.50
2019-05-12T02:26:39.603Z,9.53
2019-05-12T02:31:44.617Z,9.52
2019-05-12T02:36:49.651Z,9.45
2019-05-12T02:41:54.670Z,9.46
2019-05-12T02:47:00.001Z,9.45
2019-05-12T02:52:05.218Z,9.48
2019-05-12T02:57:10.823Z,9.36
2019-05-12T03:02:17.621Z,9.42
2019-05-12T03:07:25.429Z,9.46
2019-05-12T03:12:30.417Z,9.28
2019-05-12T03:17:48.600Z,9.22
2019-05-12T03:22:55.425Z,9.10
2019-05-12T03:28:00.694Z,9.10
2019-05-12T03:33:09.782Z,9.13
2019-05-12T03:38:14.815Z,9.09
2019-05-12T03:43:19.586Z,9.10
2019-05-12T03:48:25.337Z,9.07
2019-05-12T03:53:30.505Z,8.88
2019-05-12T03:58:35.520Z,8.79
2019-05-12T04:03:40.865Z,8.88
2019-05-12T04:08:46.004Z,8.79
2019-05-12T04:13:51.017Z,8.60
2019-05-12T04:18:57.135Z,8.61
2019-05-12T04:24:05.234Z,8.53
2019-05-12T04:29:08.834Z,8.49
2019-05-12T04:34:18.538Z,8.51
2019-05-12T04:39:20.583Z,8.37
2019-05-12T04:44:25.592Z,8.32
2019-05-12T04:49:30.596Z,8.47
2019-05-12T04:54:35.778Z,8.39
2019-05-12T04:59:40.818Z,8.47
2019-05-12T05:04:46.124Z,8.46
2019-05-12T05:09:54.897Z,8.42
2019-05-12T05:14:58.858Z,8.33
2019-05-12T05:20:04.181Z,8.33
2019-05-12T05:25:09.214Z,8.40
2019-05-12T05:30:14.239Z,8.40
2019-05-12T05:35:19.247Z,8.33
2019-05-12T05:40:28.466Z,8.40
2019-05-12T05:45:30.963Z,8.40
2019-05-12T05:50:36.020Z,8.45
2019-05-12T05:55:41.044Z,8.44
2019-05-12T06:00:46.057Z,8.41
2019-05-12T06:05:52.958Z,8.45
2019-05-12T06:10:57.791Z,8.50
2019-05-12T06:16:04.407Z,8.50
2019-05-12T06:21:09.858Z,8.42
2019-05-12T06:26:14.905Z,8.57
2019-05-12T06:31:27.973Z,8.61
2019-05-12T06:36:27.436Z,8.58
2019-05-12T06:41:33.658Z,8.50
2019-05-12T06:46:39.007Z,8.61
2019-05-12T06:51:44.551Z,8.58
2019-05-12T06:56:57.916Z,8.61
2019-05-12T07:02:00.459Z,8.76
2019-05-12T07:07:04.119Z,8.87
2019-05-12T07:12:09.228Z,8.99
2019-05-12T07:17:44.170Z,9.13
2019-05-12T07:22:49.120Z,9.11
2019-05-12T07:28:00.299Z,9.15
2019-05-12T07:33:01.441Z,9.20
2019-05-12T07:38:27.850Z,9.31
2019-05-12T07:43:33.885Z,9.44
2019-05-12T07:48:40.249Z,9.57
2019-05-12T07:53:54.659Z,9.58
2019-05-12T07:58:57.107Z,9.63
2019-05-12T08:04:01.547Z,9.69
2019-05-12T08:09:08.086Z,9.81
2019-05-12T08:14:24.703Z,9.95
2019-05-12T08:19:23.756Z,10.02
2019-05-12T08:24:26.776Z,10.12
2019-05-12T08:29:34.161Z,10.21
2019-05-12T08:34:39.864Z,10.38
2019-05-12T08:39:46.300Z,10.42
2019-05-12T08:44:54.129Z,10.68
2019-05-12T08:49:59.412Z,10.69
2019-05-12T08:55:04.525Z,10.72
2019-05-12T09:00:10.237Z,10.78
2019-05-12T09:05:19.267Z,10.75
2019-05-12T09:10:24.375Z,10.80
2019-05-12T09:15:29.385Z,10.98
2019-05-12T09:20:39.971Z,10.99
2019-05-12T09:25:45.362Z,11.16
2019-05-12T09:30:49.506Z,11.35
2019-05-12T09:36:04.372Z,11.61
2019-05-12T09:41:13.761Z,11.77
2019-05-12T09:46:18.355Z,11.71
2019-05-12T09:51:23.859Z,11.65
2019-05-12T09:56:29.669Z,11.87
2019-05-12T10:01:39.288Z,12.22
2019-05-12T10:06:44.292Z,12.52
2019-05-12T10:11:53.946Z,12.79
2019-05-12T10:16:55.379Z,12.89
2019-05-12T10:22:00.752Z,13.08
2019-05-12T10:27:06.830Z,13.19
2019-05-12T10:32:13.325Z,13.46
2019-05-12T10:37:19.377Z,13.59
2019-05-12T10:42:25.349Z,13.73
2019-05-12T10:47:30.366Z,13.82
2019-05-12T10:52:38.880Z,13.94
2019-05-12T10:57:47.060Z,14.20
2019-05-12T11:02:50.581Z,14.27
2019-05-12T11:08:00.200Z,14.52
2019-05-12T11:13:08.324Z,14.68
2019-05-12T11:18:14.967Z,14.80
2019-05-12T11:23:20.037Z,15.02
2019-05-12T11:28:34.211Z,15.16
2019-05-12T11:33:39.271Z,15.50
2019-05-12T11:38:44.521Z,15.75
2019-05-12T11:43:52.151Z,16.21
2019-05-12T11:48:57.215Z,16.47
2019-05-12T11:54:03.628Z,16.63
2019-05-12T11:59:08.982Z,16.77
2019-05-12T12:04:14.467Z,17.03
2019-05-12T12:09:19.612Z,17.10
2019-05-12T12:14:24.653Z,16.99
2019-05-12T12:19:37.862Z,17.08
2019-05-12T12:24:38.382Z,17.02
2019-05-12T12:29:43.972Z,17.21
2019-05-12T12:34:49.095Z,17.58
2019-05-12T12:39:54.099Z,17.73
2019-05-12T12:45:00.745Z,17.78
2019-05-12T12:50:06.044Z,17.97
2019-05-12T12:55:11.405Z,17.84
2019-05-12T13:00:28.810Z,18.05
2019-05-12T13:05:24.033Z,18.28
2019-05-12T13:10:29.488Z,18.45
2019-05-12T13:15:34.954Z,18.34
2019-05-12T13:20:40.025Z,18.53
2019-05-12T13:25:50.503Z,18.55
2019-05-12T13:30:55.921Z,18.68
2019-05-12T13:36:13.533Z,18.62
2019-05-12T13:41:19.987Z,18.50
2019-05-12T13:46:24.937Z,18.69
2019-05-12T13:51:30.015Z,18.48
2019-05-12T13:56:36.284Z,18.70
2019-05-12T14:01:45.140Z,18.86
2019-05-12T14:06:48.716Z,18.79
2019-05-12T14:11:53.986Z,18.87
2019-05-12T14:17:04.131Z,18.93
2019-05-12T14:22:15.564Z,18.76
2019-05-12T14:27:13.650Z,18.98
2019-05-12T14:32:20.000Z,18.82
2019-05-12T14:37:24.293Z,18.86
2019-05-12T14:42:36.364Z,18.67
2019-05-12T14:47:39.146Z,18.32
2019-05-12T14:52:44.131Z,18.31
2019-05-12T14:57:48.095Z,18.43
2019-05-12T15:02:53.990Z,18.40
2019-05-12T15:08:00.320Z,18.10
2019-05-12T15:13:03.632Z,17.90
2019-05-12T15:18:10.030Z,17.80
2019-05-12T15:23:14.330Z,17.47
2019-05-12T15:28:18.754Z,17.30
2019-05-12T15:33:24.313Z,17.22
2019-05-12T15:38:28.606Z,17.09
2019-05-12T15:43:35.832Z,16.96
2019-05-12T15:48:38.318Z,16.82
2019-05-12T15:53:44.578Z,16.84
2019-05-12T15:58:48.495Z,16.84
2019-05-12T16:03:54.307Z,16.78
2019-05-12T16:08:59.369Z,16.65
2019-05-12T16:14:03.454Z,16.58
2019-05-12T16:19:07.346Z,16.51
2019-05-12T16:24:13.363Z,16.49
2019-05-12T16:29:17.462Z,16.44
2019-05-12T16:34:21.472Z,16.51
2019-05-12T16:39:30.499Z,16.47
2019-05-12T16:44:31.199Z,16.39
2019-05-12T16:49:37.197Z,16.39
2019-05-12T16:54:40.859Z,16.31
2019-05-12T16:59:45.159Z,16.34
2019-05-12T17:04:49.330Z,16.29
2019-05-12T17:09:55.322Z,16.21
2019-05-12T17:14:59.822Z,16.13
2019-05-12T17:20:04.591Z,16.08
2019-05-12T17:25:10.578Z,16.13
2019-05-12T17:30:17.102Z,16.09
2019-05-12T17:35:27.090Z,16.05
2019-05-12T17:40:27.035Z,15.99
2019-05-12T17:45:31.138Z,15.96
2019-05-12T17:50:40.286Z,15.98
2019-05-12T17:55:42.606Z,15.82
2019-05-12T18:00:51.509Z,15.82
2019-05-12T18:05:53.390Z,15.76
2019-05-12T18:10:58.170Z,15.69
2019-05-12T18:16:05.788Z,15.66
2019-05-12T18:21:13.108Z,15.58
2019-05-12T18:26:16.598Z,15.40
2019-05-12T18:31:21.255Z,15.32
2019-05-12T18:36:25.768Z,15.24
2019-05-12T18:41:29.902Z,15.15
2019-05-12T18:46:36.128Z,15.05
2019-05-12T18:51:40.008Z,14.98
2019-05-12T18:56:44.107Z,14.85
2019-05-12T19:01:48.030Z,14.74
2019-05-12T19:06:54.215Z,14.67
2019-05-12T19:11:57.766Z,14.57
2019-05-12T19:17:05.115Z,14.41
2019-05-12T19:22:09.843Z,14.39
2019-05-12T19:27:16.690Z,14.36
2019-05-12T19:32:20.455Z,14.32
2019-05-12T19:37:28.106Z,14.27
2019-05-12T19:42:30.553Z,14.19
2019-05-12T19:47:38.459Z,14.11
2019-05-12T19:52:42.601Z,14.00
2019-05-12T19:57:49.822Z,13.98
2019-05-12T20:02:53.736Z,13.89
2019-05-12T20:07:57.834Z,13.83
2019-05-12T20:13:03.819Z,13.73
2019-05-12T20:18:07.348Z,13.57
2019-05-12T20:23:14.181Z,13.54
2019-05-12T20:28:17.670Z,13.52
2019-05-12T20:33:24.070Z,13.47
2019-05-12T20:38:34.145Z,13.46
2019-05-12T20:43:38.176Z,13.44
2019-05-12T20:48:40.500Z,13.36
2019-05-12T20:53:44.602Z,13.33
2019-05-12T20:58:50.887Z,13.28
2019-05-12T21:03:54.790Z,13.25
2019-05-12T21:08:58.818Z,13.16
2019-05-12T21:14:09.756Z,13.07
2019-05-12T21:19:11.157Z,13.05
2019-05-12T21:24:14.211Z,12.97
2019-05-12T21:29:19.080Z,12.87
2019-05-12T21:34:25.528Z,12.85
2019-05-12T21:39:29.710Z,12.82
2019-05-12T21:44:33.805Z,12.80
2019-05-12T21:49:42.691Z,12.75
2019-05-12T21:54:43.958Z,12.74
2019-05-12T21:59:48.186Z,12.71
2019-05-12T22:04:53.249Z,12.59
2019-05-12T22:09:57.876Z,12.61
2019-05-12T22:15:03.711Z,12.56
2019-05-12T22:20:14.625Z,12.56
2019-05-12T22:25:15.664Z,12.55
2019-05-12T22:30:19.009Z,12.51
2019-05-12T22:35:24.494Z,12.43
2019-05-12T22:40:28.549Z,12.38
2019-05-12T22:45:36.073Z,12.26
2019-05-12T22:50:38.685Z,12.12
2019-05-12T22:55:43.175Z,12.00
2019-05-12T23:00:51.187Z,11.96
2019-05-12T23:05:59.747Z,11.89
2019-05-12T23:10:58.954Z,11.73
2019-05-12T23:16:04.496Z,11.73
2019-05-12T23:21:13.636Z,11.62
2019-05-12T23:26:16.341Z,11.59
2019-05-12T23:31:25.889Z,11.49
2019-05-12T23:36:36.514Z,11.46
2019-05-12T23:41:35.840Z,11.43
2019-05-12T23:46:43.584Z,11.32
2019-05-12T23:51:47.577Z,11.22
2019-05-12T23:56:53.722Z,11.26
